Time;durP1;ratioP1;P1;durP2;ratioP2;P2;SDS_P1;SDS_P2;PMS_P1;PMS_P2;Temp;Humidity;BMP_temperature;BMP_pressure;BME280_temperature;BME280_humidity;BME280_pressure;Samples;Min_cycle;Max_cycle;Signal;HPM_P1;HPM_P2
2022/09/06 03:02:28;;;;;;;1.10;1.00;;;22.30;77.10;;;;;;5179692;23;20502;-73
2022/09/06 03:04:55;;;;;;;1.00;0.90;;;22.20;78.10;;;;;;4938722;29;20440;-73
2022/09/06 03:07:22;;;;;;;1.10;1.00;;;22.20;78.50;;;;;;4938655;29;20444;-73
2022/09/06 03:09:48;;;;;;;0.80;0.80;;;22.10;79.00;;;;;;4938597;29;20503;-73
2022/09/06 03:12:15;;;;;;;1.10;0.93;;;22.10;79.10;;;;;;4939291;29;20509;-73
2022/09/06 03:14:41;;;;;;;0.80;0.80;;;22.00;79.20;;;;;;4939760;29;20785;-73
2022/09/06 03:17:08;;;;;;;1.33;0.90;;;21.90;79.90;;;;;;4938216;29;20456;-73
2022/09/06 03:19:36;;;;;;;0.80;0.80;;;21.90;80.20;;;;;;4938486;29;20455;-73
2022/09/06 03:22:03;;;;;;;0.90;0.83;;;21.90;80.40;;;;;;4938322;29;20526;-73
2022/09/06 03:24:29;;;;;;;1.03;0.80;;;21.80;80.30;;;;;;4938342;29;20499;-73
2022/09/06 03:26:56;;;;;;;1.00;0.90;;;21.80;80.80;;;;;;4938306;29;20456;-73
2022/09/06 03:29:23;;;;;;;1.17;1.03;;;21.70;81.10;;;;;;4938284;29;20452;-73
2022/09/06 03:31:49;;;;;;;0.90;0.90;;;21.60;81.30;;;;;;4938193;29;20526;-73
2022/09/06 03:34:16;;;;;;;0.80;0.80;;;21.60;81.10;;;;;;4938213;29;20463;-73
2022/09/06 03:36:44;;;;;;;0.80;0.70;;;21.60;81.30;;;;;;4938094;29;20527;-73
2022/09/06 03:39:10;;;;;;;0.80;0.80;;;21.60;80.90;;;;;;4938154;29;20456;-75
2022/09/06 03:41:38;;;;;;;0.80;0.73;;;21.60;80.70;;;;;;4938039;29;20888;-76
2022/09/06 03:44:05;;;;;;;0.80;0.73;;;21.50;80.80;;;;;;4938046;29;20490;-75
2022/09/06 03:46:31;;;;;;;0.80;0.70;;;21.50;80.90;;;;;;4938007;29;20471;-76
2022/09/06 03:48:58;;;;;;;0.70;0.70;;;21.50;80.80;;;;;;4937689;29;21002;-76
2022/09/06 03:51:25;;;;;;;0.80;0.80;;;21.40;80.80;;;;;;4937872;29;20551;-76
2022/09/06 03:53:54;;;;;;;0.83;0.83;;;21.40;81.00;;;;;;4937864;29;20452;-76
2022/09/06 03:56:21;;;;;;;0.80;0.80;;;21.40;81.20;;;;;;4937428;29;20999;-76
2022/09/06 03:58:47;;;;;;;1.07;0.70;;;21.30;81.30;;;;;;4937739;29;20451;-75
2022/09/06 04:01:14;;;;;;;0.80;0.70;;;21.30;81.40;;;;;;4937256;29;20489;-76
2022/09/06 04:03:41;;;;;;;0.70;0.70;;;21.30;81.20;;;;;;4937729;29;20452;-75
2022/09/06 04:06:08;;;;;;;0.80;0.80;;;21.20;80.60;;;;;;4937674;29;20448;-75
2022/09/06 04:08:36;;;;;;;0.80;0.80;;;20.90;81.30;;;;;;4937573;29;20515;-75
2022/09/06 04:11:04;;;;;;;0.80;0.80;;;20.60;82.10;;;;;;4937466;29;20534;-76
2022/09/06 04:13:32;;;;;;;0.83;0.80;;;20.40;82.60;;;;;;4936911;29;20456;-76
2022/09/06 04:16:00;;;;;;;1.00;0.90;;;20.40;83.10;;;;;;4937087;29;20999;-76
2022/09/06 04:18:27;;;;;;;1.30;0.90;;;20.50;83.30;;;;;;4937103;29;20809;-75
2022/09/06 04:20:55;;;;;;;0.80;0.80;;;20.60;82.70;;;;;;4937298;29;20471;-75
2022/09/06 04:23:23;;;;;;;0.70;0.70;;;20.60;82.70;;;;;;4937313;29;20552;-75
2022/09/06 04:25:52;;;;;;;0.80;0.70;;;20.60;82.50;;;;;;4936991;29;20451;-75
2022/09/06 04:28:21;;;;;;;0.70;0.70;;;20.60;82.30;;;;;;4937169;29;20472;-76
2022/09/06 04:30:52;;;;;;;0.70;0.70;;;20.80;81.80;;;;;;4937080;29;20472;-75
2022/09/06 04:33:19;;;;;;;0.80;0.70;;;20.80;81.70;;;;;;4936889;29;20991;-76
2022/09/06 04:35:48;;;;;;;0.70;0.70;;;20.80;81.50;;;;;;4937025;29;20566;-76
2022/09/06 04:38:15;;;;;;;0.70;0.63;;;20.90;81.30;;;;;;4936854;29;20443;-75
2022/09/06 04:40:42;;;;;;;0.83;0.73;;;20.80;81.20;;;;;;4936937;29;20456;-75
2022/09/06 04:43:09;;;;;;;0.80;0.73;;;20.80;81.50;;;;;;4936998;29;20869;-75
2022/09/06 04:45:37;;;;;;;0.73;0.73;;;20.60;81.90;;;;;;4936635;29;20951;-75
2022/09/06 04:48:04;;;;;;;0.70;0.70;;;20.70;82.00;;;;;;4937123;29;20451;-75
2022/09/06 04:50:30;;;;;;;1.00;0.70;;;20.50;82.30;;;;;;4936842;29;20451;-75
2022/09/06 04:52:57;;;;;;;0.80;0.70;;;20.60;81.90;;;;;;4936810;29;20514;-75
2022/09/06 04:55:25;;;;;;;0.70;0.60;;;20.40;81.70;;;;;;4936735;29;20452;-76
2022/09/06 04:57:52;;;;;;;1.23;1.00;;;20.40;81.60;;;;;;4936730;29;20452;-75
2022/09/06 05:00:19;;;;;;;0.70;0.70;;;20.50;81.30;;;;;;4936729;29;20814;-75
2022/09/06 05:02:47;;;;;;;0.77;0.77;;;20.60;81.30;;;;;;4936283;29;20927;-75
2022/09/06 05:05:14;;;;;;;0.90;0.70;;;20.60;80.90;;;;;;4936647;29;20546;-74
2022/09/06 05:07:40;;;;;;;0.90;0.70;;;20.60;81.10;;;;;;4936564;29;20460;-74
2022/09/06 05:10:07;;;;;;;0.80;0.77;;;20.60;80.80;;;;;;4936535;29;20507;-75
2022/09/06 05:12:34;;;;;;;0.70;0.70;;;20.60;80.50;;;;;;4936152;29;21046;-75
2022/09/06 05:15:01;;;;;;;0.90;0.90;;;20.50;80.90;;;;;;4936164;29;21030;-76
2022/09/06 05:17:27;;;;;;;0.80;0.80;;;20.50;80.70;;;;;;4936365;29;20503;-75
2022/09/06 05:19:55;;;;;;;0.70;0.70;;;20.20;81.30;;;;;;4936398;29;20862;-75
2022/09/06 05:22:22;;;;;;;0.80;0.80;;;20.40;81.60;;;;;;4936102;29;20467;-75
2022/09/06 05:24:49;;;;;;;0.90;0.90;;;20.50;81.30;;;;;;4936020;29;20460;-75
2022/09/06 05:27:16;;;;;;;0.70;0.70;;;20.60;81.00;;;;;;4935828;29;20512;-75
2022/09/06 05:29:43;;;;;;;0.80;0.80;;;20.70;80.90;;;;;;4936334;29;20507;-75
2022/09/06 05:32:09;;;;;;;1.13;0.80;;;20.80;80.70;;;;;;4936200;29;20480;-75
2022/09/06 05:34:36;;;;;;;0.70;0.67;;;21.00;80.50;;;;;;4936294;29;20448;-76
2022/09/06 05:37:04;;;;;;;1.73;0.80;;;21.00;80.60;;;;;;4936211;29;20488;-75
2022/09/06 05:39:31;;;;;;;0.80;0.80;;;21.10;80.20;;;;;;4935883;29;20819;-76
2022/09/06 05:41:57;;;;;;;0.90;0.70;;;21.10;80.40;;;;;;4936103;29;20474;-75
2022/09/06 05:44:25;;;;;;;0.70;0.70;;;21.20;79.90;;;;;;4936126;29;20459;-72
2022/09/06 05:46:52;;;;;;;1.43;0.80;;;21.30;80.00;;;;;;4936139;29;20444;-73
2022/09/06 05:49:19;;;;;;;1.10;0.90;;;21.20;79.70;;;;;;4935779;29;20456;-73
2022/09/06 05:51:50;;;;;;;0.90;0.80;;;21.30;79.70;;;;;;4936012;29;20523;-73
2022/09/06 05:54:18;;;;;;;0.80;0.70;;;21.40;79.70;;;;;;4936117;29;20432;-73
2022/09/06 05:56:45;;;;;;;0.70;0.70;;;21.40;79.90;;;;;;4935972;29;20495;-72
2022/09/06 05:59:11;;;;;;;0.70;0.70;;;21.40;79.60;;;;;;4935972;29;20452;-71
2022/09/06 06:01:47;;;;;;;0.80;0.80;;;21.40;79.30;;;;;;4935574;29;20629;-71
2022/09/06 06:04:14;;;;;;;0.80;0.80;;;21.50;79.20;;;;;;4935984;29;20435;-73
2022/09/06 06:06:40;;;;;;;0.80;0.70;;;21.50;80.00;;;;;;4935986;29;20447;-71
2022/09/06 06:09:07;;;;;;;0.80;0.80;;;21.50;80.50;;;;;;4935912;29;20499;-71
2022/09/06 06:11:35;;;;;;;0.70;0.70;;;21.50;80.50;;;;;;4935810;29;20528;-71
2022/09/06 06:14:02;;;;;;;1.00;0.70;;;21.60;80.30;;;;;;4935551;29;20940;-72
2022/09/06 06:16:29;;;;;;;0.70;0.70;;;21.60;79.80;;;;;;4935784;29;20487;-72
2022/09/06 06:18:56;;;;;;;0.70;0.70;;;21.60;79.50;;;;;;4935867;29;20451;-72
2022/09/06 06:21:24;;;;;;;0.70;0.67;;;21.60;79.10;;;;;;4935810;29;20559;-72
2022/09/06 06:23:52;;;;;;;0.70;0.70;;;21.60;79.20;;;;;;4935466;29;21011;-71
2022/09/06 06:26:19;;;;;;;0.70;0.70;;;21.70;79.70;;;;;;4935443;29;20873;-72
2022/09/06 06:28:47;;;;;;;0.70;0.70;;;21.80;79.60;;;;;;4935787;29;20835;-72
2022/09/06 06:31:14;;;;;;;0.70;0.60;;;21.80;79.50;;;;;;4935310;29;21043;-72
2022/09/06 06:33:42;;;;;;;0.70;0.70;;;21.90;78.90;;;;;;4936045;29;20516;-72
2022/09/06 06:36:21;;;;;;;0.70;0.70;;;22.00;78.30;;;;;;4935411;29;21094;-72
2022/09/06 06:38:49;;;;;;;0.80;0.80;;;22.10;77.10;;;;;;4939114;29;20439;-72
2022/09/06 06:41:18;;;;;;;0.70;0.60;;;22.90;75.90;;;;;;4938790;29;20468;-72
2022/09/06 06:43:46;;;;;;;0.80;0.67;;;24.50;73.00;;;;;;4938762;29;21003;-72
2022/09/06 06:46:15;;;;;;;0.80;0.80;;;26.30;68.30;;;;;;4939661;29;20503;-72
2022/09/06 06:48:43;;;;;;;0.80;0.70;;;27.30;64.70;;;;;;4939781;29;20522;-72
2022/09/06 06:51:11;;;;;;;0.80;0.70;;;27.90;63.50;;;;;;4938839;29;20468;-72
2022/09/06 06:53:37;;;;;;;0.80;0.70;;;28.50;59.00;;;;;;4938871;29;20452;-72
2022/09/06 06:56:17;;;;;;;0.80;0.70;;;28.80;58.90;;;;;;4938740;29;20636;-72
2022/09/06 06:58:44;;;;;;;0.70;0.70;;;29.00;59.00;;;;;;4938843;29;20499;-72
2022/09/06 07:01:12;;;;;;;0.70;0.70;;;28.90;59.30;;;;;;4938550;29;20487;-72
2022/09/06 07:03:39;;;;;;;0.70;0.60;;;28.40;58.90;;;;;;4938753;29;20539;-72
2022/09/06 07:06:06;;;;;;;0.70;0.70;;;28.20;59.70;;;;;;4938669;29;20516;-72
2022/09/06 07:08:34;;;;;;;0.80;0.73;;;27.60;61.00;;;;;;4938642;29;20533;-72
2022/09/06 07:11:01;;;;;;;0.70;0.60;;;27.10;61.50;;;;;;4938536;29;20538;-72
2022/09/06 07:13:28;;;;;;;0.80;0.70;;;26.10;63.20;;;;;;4938615;29;20856;-71
2022/09/06 07:16:07;;;;;;;1.13;0.70;;;26.10;64.10;;;;;;4938485;29;20452;-72
2022/09/06 07:18:36;;;;;;;0.83;0.63;;;25.50;66.10;;;;;;4938548;29;20436;-71
2022/09/06 07:21:03;;;;;;;0.70;0.60;;;25.20;67.00;;;;;;4938402;29;20532;-72
2022/09/06 07:23:29;;;;;;;0.70;0.60;;;25.10;66.80;;;;;;4938367;29;20452;-72
2022/09/06 07:25:56;;;;;;;1.13;0.73;;;24.50;67.30;;;;;;4938419;29;20490;-72
2022/09/06 07:28:23;;;;;;;0.80;0.70;;;24.00;69.50;;;;;;4938257;29;20860;-72
2022/09/06 07:30:53;;;;;;;0.80;0.70;;;23.80;70.20;;;;;;4938186;29;20476;-72
2022/09/06 07:33:20;;;;;;;0.80;0.70;;;23.90;70.10;;;;;;4937851;29;20980;-72
2022/09/06 07:35:57;;;;;;;1.00;0.70;;;23.90;70.50;;;;;;4938250;29;20452;-72
2022/09/06 07:38:24;;;;;;;0.80;0.80;;;23.80;71.60;;;;;;4938194;29;20588;-72
2022/09/06 07:40:55;;;;;;;0.70;0.60;;;23.90;70.10;;;;;;4937991;29;20531;-72
2022/09/06 07:43:21;;;;;;;0.80;0.70;;;23.70;71.40;;;;;;4938020;29;20456;-72
2022/09/06 07:45:48;;;;;;;0.80;0.80;;;23.90;69.80;;;;;;4937984;29;20569;-72
2022/09/06 07:48:51;;;;;;;1.20;0.70;;;24.10;71.10;;;;;;4937211;29;20452;-72
2022/09/06 07:51:20;;;;;;;0.80;0.70;;;24.30;68.60;;;;;;4937023;29;20475;-72
2022/09/06 07:53:50;;;;;;;1.10;0.97;;;24.70;68.50;;;;;;4937855;29;20449;-72
2022/09/06 07:56:18;;;;;;;0.70;0.70;;;24.60;69.20;;;;;;4937528;29;20507;-72
2022/09/06 07:58:45;;;;;;;0.77;0.67;;;24.80;66.00;;;;;;4937742;29;20443;-72
2022/09/06 08:01:25;;;;;;;0.70;0.70;;;24.80;67.90;;;;;;4937476;29;20535;-72
2022/09/06 08:03:52;;;;;;;0.80;0.70;;;25.10;66.90;;;;;;4937684;29;20428;-72
2022/09/06 08:06:21;;;;;;;1.20;0.70;;;25.40;67.30;;;;;;4937617;29;20813;-72
2022/09/06 08:08:47;;;;;;;1.00;0.70;;;25.70;65.70;;;;;;4937570;29;20448;-73
2022/09/06 08:11:15;;;;;;;0.80;0.60;;;25.80;64.10;;;;;;4937334;29;20480;-73
2022/09/06 08:13:42;;;;;;;1.53;0.60;;;25.70;64.60;;;;;;4937470;29;20452;-73
2022/09/06 08:16:10;;;;;;;0.70;0.67;;;25.50;65.50;;;;;;4937141;29;20459;-73
2022/09/06 08:18:37;;;;;;;0.87;0.70;;;25.70;66.60;;;;;;4937307;29;20488;-73
2022/09/06 08:21:09;;;;;;;0.80;0.80;;;25.80;66.00;;;;;;4937021;29;20984;-74
2022/09/06 08:23:38;;;;;;;0.97;0.70;;;26.00;65.30;;;;;;4937228;29;20542;-73
2022/09/06 08:26:05;;;;;;;1.30;0.80;;;26.30;64.40;;;;;;4937149;29;20456;-73
2022/09/06 08:28:32;;;;;;;0.70;0.60;;;26.30;64.10;;;;;;4937123;29;20451;-73
2022/09/06 08:31:05;;;;;;;1.00;0.70;;;26.30;64.80;;;;;;4936987;29;20480;-74
2022/09/06 08:33:32;;;;;;;0.70;0.70;;;26.20;65.60;;;;;;4937131;29;20440;-73
2022/09/06 08:36:00;;;;;;;0.87;0.70;;;26.40;66.20;;;;;;4937112;29;20507;-74
2022/09/06 08:38:27;;;;;;;0.70;0.60;;;26.50;65.10;;;;;;4936587;29;20887;-74
2022/09/06 08:41:06;;;;;;;0.80;0.70;;;26.30;64.00;;;;;;4936924;29;20532;-74
2022/09/06 08:43:33;;;;;;;0.90;0.70;;;26.10;66.00;;;;;;4940564;29;20435;-73
2022/09/06 08:46:00;;;;;;;0.70;0.60;;;26.20;64.90;;;;;;4941616;29;20944;-73
2022/09/06 08:48:30;;;;;;;0.80;0.60;;;26.00;65.50;;;;;;4941239;29;20970;-74
2022/09/06 08:51:09;;;;;;;0.70;0.60;;;26.40;66.00;;;;;;4942396;29;20472;-73
2022/09/06 08:53:42;;;;;;;0.80;0.80;;;26.60;64.80;;;;;;4943124;29;20420;-74
2022/09/06 08:56:17;;;;;;;0.80;0.80;;;26.80;65.30;;;;;;4942291;29;20436;-73
2022/09/06 08:59:02;;;;;;;0.80;0.70;;;26.80;62.70;;;;;;4937485;29;20474;-73
2022/09/06 09:01:35;;;;;;;0.80;0.70;;;26.80;64.10;;;;;;4936129;29;20542;-74
2022/09/06 09:04:05;;;;;;;0.80;0.77;;;26.80;63.80;;;;;;4936952;29;20500;-74
2022/09/06 09:06:33;;;;;;;0.73;0.70;;;27.00;64.00;;;;;;4941064;29;20515;-73
2022/09/06 09:09:04;;;;;;;0.80;0.70;;;27.30;62.50;;;;;;4942481;29;20455;-73
2022/09/06 09:11:34;;;;;;;0.70;0.70;;;27.20;62.70;;;;;;4936429;29;20484;-73
2022/09/06 09:14:05;;;;;;;0.83;0.70;;;27.10;63.40;;;;;;4937678;29;20441;-73
2022/09/06 09:16:32;;;;;;;1.40;0.80;;;27.00;64.60;;;;;;4936060;29;20999;-74
2022/09/06 09:19:02;;;;;;;0.80;0.73;;;27.20;64.50;;;;;;4936125;29;20944;-73
2022/09/06 09:21:32;;;;;;;0.80;0.70;;;27.40;64.30;;;;;;4936284;29;20500;-73
2022/09/06 09:24:03;;;;;;;0.80;0.80;;;27.50;62.00;;;;;;4936310;29;20433;-73
2022/09/06 09:26:41;;;;;;;0.87;0.70;;;27.20;64.00;;;;;;4935891;29;20492;-73
2022/09/06 09:29:10;;;;;;;1.00;0.83;;;27.20;64.40;;;;;;4935954;29;20935;-73
2022/09/06 09:31:39;;;;;;;0.90;0.80;;;27.20;63.60;;;;;;4936023;29;20487;-73
2022/09/06 09:34:10;;;;;;;0.80;0.73;;;27.20;63.90;;;;;;4936173;29;20484;-73
2022/09/06 09:36:36;;;;;;;1.20;0.87;;;27.40;65.50;;;;;;4936141;29;20444;-73
2022/09/06 09:39:09;;;;;;;2.30;0.90;;;27.30;63.60;;;;;;4935738;29;20852;-73
2022/09/06 09:41:40;;;;;;;0.80;0.70;;;27.30;63.30;;;;;;4936164;29;20554;-73
2022/09/06 09:44:10;;;;;;;1.20;0.80;;;27.00;64.10;;;;;;4936140;29;20484;-73
2022/09/06 09:46:38;;;;;;;0.80;0.70;;;27.00;64.70;;;;;;4935762;29;20944;-74
2022/09/06 09:49:08;;;;;;;0.90;0.80;;;27.00;64.70;;;;;;4936067;29;20544;-73
2022/09/06 09:51:37;;;;;;;0.90;0.73;;;27.30;65.40;;;;;;4936622;29;20468;-73
2022/09/06 09:54:05;;;;;;;0.93;0.73;;;27.20;63.90;;;;;;4935973;29;20874;-74
2022/09/06 09:57:01;;;;;;;0.83;0.80;;;27.30;63.90;;;;;;4935979;29;20477;-73
2022/09/06 09:59:32;;;;;;;0.87;0.80;;;27.30;63.70;;;;;;4935970;29;20452;-73
2022/09/06 10:02:01;;;;;;;0.90;0.80;;;27.60;64.50;;;;;;4935486;29;20479;-74
2022/09/06 10:04:31;;;;;;;1.13;0.90;;;27.90;63.50;;;;;;4935939;29;20480;-73
2022/09/06 10:07:12;;;;;;;0.90;0.80;;;28.00;63.50;;;;;;4935828;29;20459;-72
2022/09/06 10:09:41;;;;;;;1.00;0.90;;;28.30;61.20;;;;;;4935857;29;20436;-75
2022/09/06 10:12:16;;;;;;;1.30;0.70;;;28.00;61.50;;;;;;4936857;29;20472;-73
2022/09/06 10:14:45;;;;;;;0.80;0.80;;;27.80;63.00;;;;;;4939344;29;20523;-73
2022/09/06 10:17:20;;;;;;;0.80;0.70;;;28.10;62.90;;;;;;4939132;29;20448;-72
2022/09/06 10:19:47;;;;;;;0.93;0.80;;;28.40;61.10;;;;;;4939569;29;20494;-73
2022/09/06 10:22:25;;;;;;;0.83;0.83;;;28.40;60.20;;;;;;4939450;29;20482;-73
2022/09/06 10:25:18;;;;;;;1.43;0.90;;;28.00;61.90;;;;;;4939504;29;20451;-73
2022/09/06 10:27:59;;;;;;;1.30;0.80;;;27.80;62.30;;;;;;4939319;29;20452;-74
2022/09/06 10:30:29;;;;;;;0.80;0.80;;;27.80;62.10;;;;;;4939292;29;20436;-74
2022/09/06 10:33:00;;;;;;;1.17;0.90;;;27.50;62.60;;;;;;4939300;29;20507;-73
2022/09/06 10:35:31;;;;;;;1.00;0.90;;;27.50;63.00;;;;;;4940092;29;20444;-73
2022/09/06 10:38:16;;;;;;;0.93;0.90;;;27.70;64.30;;;;;;4938888;29;20471;-73
2022/09/06 10:40:53;;;;;;;1.10;0.90;;;27.80;64.10;;;;;;4939064;29;20436;-73
2022/09/06 10:43:21;;;;;;;0.80;0.80;;;27.90;62.70;;;;;;4939102;29;20436;-73
2022/09/06 10:45:57;;;;;;;0.80;0.80;;;27.60;63.40;;;;;;4938876;29;20456;-73
2022/09/06 10:48:27;;;;;;;0.83;0.73;;;27.60;63.80;;;;;;4938960;29;20428;-75
2022/09/06 10:50:57;;;;;;;1.00;0.83;;;27.30;64.30;;;;;;4938895;29;20475;-73
2022/09/06 10:53:34;;;;;;;1.00;0.90;;;27.30;64.50;;;;;;4938755;29;20455;-74
2022/09/06 10:56:08;;;;;;;0.93;0.83;;;27.40;63.90;;;;;;4938421;29;20874;-73
2022/09/06 10:58:45;;;;;;;1.07;0.90;;;27.60;64.70;;;;;;4938426;29;21014;-73
2022/09/06 11:01:24;;;;;;;1.07;0.80;;;27.70;64.60;;;;;;4938583;29;20542;-73
2022/09/06 11:03:52;;;;;;;0.80;0.80;;;27.50;63.50;;;;;;4938746;29;20439;-73
2022/09/06 11:06:25;;;;;;;1.03;0.80;;;27.40;64.50;;;;;;4938584;29;20543;-73
2022/09/06 11:08:57;;;;;;;1.67;0.83;;;27.40;63.20;;;;;;4938990;29;20436;-74
2022/09/06 11:11:34;;;;;;;1.33;0.90;;;27.30;64.30;;;;;;4938952;29;20471;-74
2022/09/06 11:14:06;;;;;;;0.80;0.70;;;27.30;64.30;;;;;;4938974;29;20487;-72
2022/09/06 11:16:40;;;;;;;0.80;0.80;;;27.20;65.20;;;;;;4938744;29;20437;-72
2022/09/06 11:19:16;;;;;;;1.10;0.90;;;27.20;64.70;;;;;;4938161;29;20917;-72
2022/09/06 11:22:07;;;;;;;1.23;1.10;;;27.20;65.20;;;;;;4938322;29;20842;-72
2022/09/06 11:24:48;;;;;;;1.00;0.90;;;27.30;64.90;;;;;;4938955;29;20437;-72
2022/09/06 11:27:21;;;;;;;0.80;0.80;;;27.20;65.40;;;;;;4939214;29;20432;-72
2022/09/06 11:29:55;;;;;;;1.10;0.70;;;27.40;64.30;;;;;;4938181;29;20462;-72
2022/09/06 11:32:32;;;;;;;0.80;0.70;;;27.60;65.00;;;;;;4938094;29;20991;-72
2022/09/06 11:35:02;;;;;;;0.80;0.70;;;27.80;62.90;;;;;;4938369;29;20435;-71
2022/09/06 11:37:32;;;;;;;1.00;0.83;;;27.80;63.20;;;;;;4938167;29;20452;-72
2022/09/06 11:40:15;;;;;;;0.87;0.83;;;27.80;63.80;;;;;;4938974;29;20440;-71
2022/09/06 11:43:11;;;;;;;1.37;1.00;;;28.00;63.30;;;;;;4938134;29;20522;-73
2022/09/06 11:45:46;;;;;;;1.40;0.70;;;28.40;63.20;;;;;;4938795;29;20439;-72
2022/09/06 11:48:48;;;;;;;1.00;0.80;;;28.70;61.30;;;;;;4938286;29;20472;-73
2022/09/06 11:51:36;;;;;;;1.03;0.97;;;28.80;60.60;;;;;;4938082;29;20463;-74
2022/09/06 11:54:14;;;;;;;1.40;0.70;;;28.90;60.30;;;;;;4938453;29;20451;-73
2022/09/06 11:56:51;;;;;;;0.70;0.70;;;29.10;59.10;;;;;;4937882;29;20444;-74
2022/09/06 11:59:37;;;;;;;0.80;0.80;;;29.30;59.30;;;;;;4938215;29;20472;-74
2022/09/06 12:02:07;;;;;;;1.77;0.80;;;29.50;57.10;;;;;;4937629;29;20488;-74
2022/09/06 12:05:11;;;;;;;0.77;0.70;;;29.90;57.30;;;;;;4938490;29;20474;-73
2022/09/06 12:07:59;;;;;;;0.70;0.63;;;30.20;55.80;;;;;;4920189;29;20454;-73
2022/09/06 12:11:00;;;;;;;1.27;0.90;;;30.40;56.10;;;;;;4937290;29;20444;-74
2022/09/06 12:13:52;;;;;;;1.00;0.90;;;30.30;56.10;;;;;;4938205;29;20479;-74
2022/09/06 12:16:19;;;;;;;1.00;0.70;;;30.30;56.20;;;;;;4934674;29;20453;-75
2022/09/06 12:19:00;;;;;;;1.10;0.70;;;30.30;55.50;;;;;;4937504;29;20546;-74
2022/09/06 12:21:35;;;;;;;0.80;0.70;;;30.30;57.10;;;;;;4937932;29;20486;-75
2022/09/06 12:24:03;;;;;;;1.07;0.80;;;30.00;56.20;;;;;;4938187;29;20460;-74
2022/09/06 12:26:53;;;;;;;0.97;0.87;;;30.10;56.30;;;;;;4937549;29;20463;-74
2022/09/06 12:29:25;;;;;;;1.37;0.90;;;30.50;54.60;;;;;;4938048;29;20820;-75
2022/09/06 12:31:53;;;;;;;0.80;0.70;;;31.00;54.90;;;;;;4937435;29;20480;-75
2022/09/06 12:34:23;;;;;;;0.90;0.70;;;31.50;53.70;;;;;;4937526;29;20456;-75
2022/09/06 12:36:56;;;;;;;1.00;0.90;;;31.80;53.40;;;;;;4937178;29;20915;-75
2022/09/06 12:39:23;;;;;;;0.80;0.80;;;31.60;53.00;;;;;;4937071;29;20475;-75
2022/09/06 12:41:55;;;;;;;0.80;0.70;;;31.20;54.10;;;;;;4936817;29;20847;-75
2022/09/06 12:44:31;;;;;;;0.93;0.87;;;31.40;53.00;;;;;;4937312;29;20793;-75
2022/09/06 12:47:04;;;;;;;0.90;0.70;;;31.60;52.60;;;;;;4937297;29;20519;-74
2022/09/06 12:49:32;;;;;;;1.40;0.80;;;31.90;52.60;;;;;;4937469;29;20444;-74
2022/09/06 12:52:08;;;;;;;0.90;0.80;;;31.40;51.10;;;;;;4936993;29;20473;-74
2022/09/06 12:54:43;;;;;;;1.00;0.80;;;31.10;50.80;;;;;;4936558;29;20974;-75
2022/09/06 12:57:18;;;;;;;0.90;0.70;;;31.20;53.10;;;;;;4937029;29;20443;-75
2022/09/06 12:59:50;;;;;;;1.30;0.70;;;31.10;53.10;;;;;;4936743;29;20550;-73
2022/09/06 13:02:23;;;;;;;0.80;0.70;;;30.70;53.60;;;;;;4936270;29;20490;-73
2022/09/06 13:04:53;;;;;;;1.10;0.70;;;30.70;52.60;;;;;;4937580;29;20444;-74
2022/09/06 13:07:22;;;;;;;0.83;0.80;;;30.60;53.20;;;;;;4936853;29;20464;-75
2022/09/06 13:09:53;;;;;;;0.90;0.80;;;30.30;53.40;;;;;;4938028;29;20455;-73
2022/09/06 13:12:25;;;;;;;0.93;0.77;;;30.00;53.50;;;;;;4942326;29;20460;-74
2022/09/06 13:14:53;;;;;;;1.03;0.80;;;29.60;54.40;;;;;;4942029;29;20495;-74
2022/09/06 13:17:25;;;;;;;0.90;0.70;;;29.40;55.00;;;;;;4941588;29;20480;-74
2022/09/06 13:19:52;;;;;;;0.70;0.67;;;29.10;55.00;;;;;;4937858;29;20488;-73
2022/09/06 13:22:37;;;;;;;1.00;0.80;;;29.10;55.70;;;;;;4936352;29;20472;-74
2022/09/06 13:25:05;;;;;;;0.90;0.80;;;29.30;57.80;;;;;;4936420;29;20444;-74
2022/09/06 13:27:36;;;;;;;0.73;0.70;;;29.50;59.30;;;;;;4936305;29;20452;-74
2022/09/06 13:30:07;;;;;;;1.30;0.90;;;29.50;59.70;;;;;;4936019;29;20931;-74
2022/09/06 13:32:35;;;;;;;0.80;0.70;;;29.60;60.00;;;;;;4936137;29;21042;-75
2022/09/06 13:35:02;;;;;;;0.80;0.77;;;29.60;60.20;;;;;;4937034;29;20452;-74
2022/09/06 13:37:31;;;;;;;1.00;0.70;;;29.50;60.70;;;;;;4936276;29;20499;-74
2022/09/06 13:39:58;;;;;;;0.93;0.70;;;29.60;60.80;;;;;;4936264;29;20578;-74
2022/09/06 13:42:27;;;;;;;1.20;0.90;;;29.60;60.20;;;;;;4936227;29;20562;-74
2022/09/06 13:44:55;;;;;;;0.90;0.80;;;29.70;60.60;;;;;;4936308;29;20455;-74
2022/09/06 13:47:22;;;;;;;1.17;0.90;;;29.70;60.60;;;;;;4938614;29;20492;-74
2022/09/06 13:49:53;;;;;;;0.90;0.83;;;29.70;60.30;;;;;;4940203;29;20444;-74
2022/09/06 13:52:20;;;;;;;1.00;0.70;;;29.80;60.30;;;;;;4940119;29;20486;-74
2022/09/06 13:54:47;;;;;;;0.80;0.70;;;29.90;59.90;;;;;;4940101;29;20452;-74
2022/09/06 13:57:14;;;;;;;0.80;0.70;;;29.90;60.00;;;;;;4940210;29;20478;-73
2022/09/06 13:59:40;;;;;;;0.90;0.67;;;30.00;58.80;;;;;;4939995;29;20483;-73
2022/09/06 14:02:11;;;;;;;1.33;0.90;;;29.80;58.10;;;;;;4939757;29;20491;-74
2022/09/06 14:04:39;;;;;;;0.70;0.70;;;29.80;58.70;;;;;;4939973;29;20439;-74
2022/09/06 14:07:05;;;;;;;0.70;0.60;;;29.80;58.70;;;;;;4939963;29;20451;-74
2022/09/06 14:09:32;;;;;;;0.90;0.80;;;29.80;58.70;;;;;;4939585;29;21011;-74
2022/09/06 14:11:59;;;;;;;0.87;0.60;;;30.00;59.40;;;;;;4939690;29;20483;-74
2022/09/06 14:14:26;;;;;;;1.00;0.90;;;30.20;59.10;;;;;;4939749;29;20534;-75
2022/09/06 14:16:53;;;;;;;0.80;0.70;;;30.40;57.60;;;;;;4939636;29;20970;-74
2022/09/06 14:19:22;;;;;;;1.80;0.80;;;30.70;57.00;;;;;;4939340;29;20507;-74
2022/09/06 14:21:48;;;;;;;1.17;0.73;;;31.00;56.40;;;;;;4939777;29;20482;-73
2022/09/06 14:24:15;;;;;;;0.80;0.70;;;31.10;56.50;;;;;;4939638;29;20459;-75
2022/09/06 14:26:42;;;;;;;1.00;0.90;;;31.20;56.60;;;;;;4939611;29;20499;-74
2022/09/06 14:29:08;;;;;;;0.83;0.67;;;31.10;56.80;;;;;;4939603;29;20456;-75
2022/09/06 14:31:35;;;;;;;0.80;0.67;;;31.10;56.80;;;;;;4939107;29;20983;-74
2022/09/06 14:34:03;;;;;;;1.10;1.00;;;31.40;56.40;;;;;;4940104;29;20542;-75
2022/09/06 14:36:33;;;;;;;0.90;0.80;;;31.60;56.50;;;;;;4939316;29;20506;-74
2022/09/06 14:39:01;;;;;;;0.70;0.70;;;32.00;55.10;;;;;;4939243;29;20847;-74
2022/09/06 14:41:28;;;;;;;1.33;0.90;;;32.90;53.60;;;;;;4938860;29;20486;-74
2022/09/06 14:43:56;;;;;;;0.80;0.70;;;33.30;52.30;;;;;;4939207;29;20448;-74
2022/09/06 14:46:24;;;;;;;0.80;0.70;;;33.20;52.90;;;;;;4939162;29;20456;-74
2022/09/06 14:48:56;;;;;;;0.70;0.70;;;33.00;53.60;;;;;;4939123;29;20519;-74
2022/09/06 14:51:23;;;;;;;1.20;0.73;;;32.70;54.70;;;;;;4938778;29;20480;-74
2022/09/06 14:53:53;;;;;;;1.07;0.97;;;32.50;55.60;;;;;;4938976;29;20460;-74
2022/09/06 14:56:20;;;;;;;0.80;0.60;;;32.20;55.70;;;;;;4939032;29;20444;-73
2022/09/06 14:58:47;;;;;;;0.83;0.70;;;32.10;56.30;;;;;;4938367;29;20487;-74
2022/09/06 15:01:15;;;;;;;0.80;0.70;;;32.20;55.50;;;;;;4938392;29;20493;-74
2022/09/06 15:03:45;;;;;;;0.80;0.67;;;33.20;54.20;;;;;;4939460;29;20499;-75
2022/09/06 15:06:12;;;;;;;0.80;0.70;;;33.90;51.50;;;;;;4938876;29;20550;-74
2022/09/06 15:08:39;;;;;;;0.80;0.60;;;33.60;53.10;;;;;;4938755;29;20511;-74
2022/09/06 15:11:08;;;;;;;0.80;0.80;;;33.40;54.30;;;;;;4938389;29;20457;-74
2022/09/06 15:13:36;;;;;;;0.80;0.70;;;33.20;54.90;;;;;;4939953;29;20451;-74
2022/09/06 15:16:03;;;;;;;1.00;0.90;;;32.80;55.00;;;;;;4938465;29;20933;-75
2022/09/06 15:18:30;;;;;;;0.90;0.80;;;32.30;55.80;;;;;;4938339;29;20874;-74
2022/09/06 15:20:57;;;;;;;0.80;0.80;;;31.90;55.60;;;;;;4938907;29;20539;-75
2022/09/06 15:23:23;;;;;;;0.70;0.60;;;31.50;55.80;;;;;;4938685;29;20452;-75
2022/09/06 15:25:52;;;;;;;0.70;0.70;;;31.40;56.80;;;;;;4938698;29;20483;-75
2022/09/06 15:28:21;;;;;;;0.80;0.77;;;31.10;57.00;;;;;;4938586;29;20456;-75
2022/09/06 15:30:48;;;;;;;0.70;0.60;;;30.70;57.00;;;;;;4938414;29;20468;-75
2022/09/06 15:33:15;;;;;;;0.80;0.67;;;30.40;55.60;;;;;;4938602;29;20940;-74
2022/09/06 15:35:42;;;;;;;0.80;0.73;;;30.20;56.60;;;;;;4938355;29;20507;-75
2022/09/06 15:38:09;;;;;;;0.90;0.70;;;30.10;56.00;;;;;;4938452;29;20460;-74
2022/09/06 15:40:36;;;;;;;0.80;0.70;;;29.90;56.70;;;;;;4938505;29;20487;-74
2022/09/06 15:43:03;;;;;;;0.90;0.80;;;29.90;56.70;;;;;;4938875;29;20456;-75
2022/09/06 15:45:37;;;;;;;0.80;0.70;;;29.70;56.00;;;;;;4938221;29;20452;-77
2022/09/06 15:48:04;;;;;;;0.80;0.60;;;29.60;56.30;;;;;;4938242;29;20452;-75
2022/09/06 15:50:31;;;;;;;0.80;0.70;;;29.50;56.90;;;;;;4938005;29;20886;-75
2022/09/06 15:52:57;;;;;;;0.80;0.60;;;29.40;56.90;;;;;;4937960;29;20456;-76
2022/09/06 15:58:08;;;;;;;1.00;0.70;;;29.10;58.40;;;;;;4937708;29;20464;-75
2022/09/06 16:00:36;;;;;;;0.80;0.70;;;28.90;58.60;;;;;;4937903;29;20515;-75
2022/09/06 16:03:03;;;;;;;1.23;0.70;;;28.60;60.10;;;;;;4937787;29;20460;-75
2022/09/06 16:05:29;;;;;;;0.80;0.67;;;28.20;60.60;;;;;;4938098;29;20452;-75
2022/09/06 16:07:56;;;;;;;0.80;0.70;;;28.20;61.90;;;;;;4937884;29;20452;-75